Date,TemperatureHighF,TemperatureAvgF,TemperatureLowF,DewpointHighF,DewpointAvgF,DewpointLowF,HumidityHigh,HumidityAvg,HumidityLow,PressureMaxIn,PressureMinIn,WindSpeedMaxMPH,WindSpeedAvgMPH,GustSpeedMaxMPH,PrecipitationSumIn
2013-1-13,32,26,20,7,1,-2,40,33,29,29.60,29.56,8,2,8,0.00
2013-1-14,32,22,13,20,9,-2,78,57,40,29.68,29.56,8,2,9,0.00
2013-1-15,25,15,7,6,2,-2,72,57,42,29.93,29.67,8,2,9,0.00
2013-1-16,39,24,12,16,8,0,62,50,38,30.00,29.88,8,2,8,0.00
2013-1-17,50,30,15,21,14,7,72,52,30,30.07,29.96,5,1,5,0.00
2013-1-18,51,35,24,23,17,12,68,50,30,29.98,29.85,5,1,5,0.00
2013-1-19,52,35,23,22,16,10,66,47,25,29.98,29.87,6,1,6,0.00
2013-1-20,53,35,20,18,12,7,65,41,20,29.94,29.80,9,1,9,0.00
2013-1-21,52,35,20,16,11,6,57,39,21,29.92,29.81,6,2,6,0.00
2013-1-22,58,40,24,19,13,6,58,36,12,29.94,29.84,7,2,7,0.00
2013-1-23,60,40,26,20,12,7,50,32,16,29.99,29.89,6,1,6,0.00
2013-1-24,62,45,28,34,18,8,55,35,20,29.94,29.81,7,1,7,0.00
2013-1-25,57,48,37,39,34,27,73,59,50,29.92,29.80,5,1,5,0.00
2013-1-26,58,48,41,50,40,34,83,75,64,29.80,29.58,10,2,10,0.10
2013-1-27,59,48,41,41,36,33,83,66,39,29.66,29.57,10,2,10,0.00
2013-1-28,55,44,36,38,33,20,79,65,41,29.60,29.41,14,5,14,0.02
2013-1-29,36,31,27,21,15,6,67,52,33,29.61,29.39,16,5,16,0.00
2013-1-30,41,31,21,17,14,10,69,52,34,29.81,29.61,10,4,10,0.00
2013-1-31,52,37,24,25,19,14,76,52,29,29.90,29.80,10,2,10,0.00
2013-2-2,56,47,34,21,17,11,39,30,24,29.95,29.89,6,2,6,0.00
2013-2-3,53,41,28,28,19,10,53,42,27,29.92,29.64,5,1,5,0.00
2013-2-4,57,43,30,30,24,18,73,50,28,29.75,29.65,8,2,8,0.00
2013-2-5,60,43,31,24,20,15,61,41,22,29.74,29.64,5,1,5,0.00
2013-2-6,60,44,28,29,21,14,59,41,29,29.66,29.53,12,2,12,0.00
2013-2-7,57,43,32,28,22,14,66,45,23,29.79,29.65,14,2,14,0.00
2013-2-8,59,46,32,27,21,17,59,39,25,29.74,29.44,17,4,17,0.00
2013-2-9,49,38,29,22,14,5,57,37,23,29.50,29.33,21,6,21,0.00
2013-2-10,46,33,25,20,14,9,63,47,26,29.60,29.50,12,3,12,0.00
2013-2-11,49,33,21,21,15,6,71,51,18,29.63,29.53,12,3,12,0.00
2013-2-12,42,31,22,21,13,6,74,50,23,29.78,29.57,9,3,9,0.00
2013-2-13,48,34,23,17,14,10,59,44,28,29.78,29.67,10,4,10,0.00
2013-2-14,51,38,25,21,17,13,64,45,25,29.82,29.68,12,3,12,0.00
2013-2-15,52,38,24,22,14,5,69,41,15,29.97,29.81,14,3,14,0.00
2013-2-16,60,42,29,17,10,2,44,28,12,30.00,29.76,8,2,8,0.00
2013-2-17,63,43,25,14,7,1,39,24,11,29.77,29.40,12,3,12,0.00
2013-2-18,53,41,31,16,0,-16,46,21,7,29.72,29.49,13,4,13,0.00
2013-2-19,63,42,23,32,8,-10,62,27,12,29.71,29.43,18,4,18,0.00
2013-2-20,52,43,35,32,26,17,71,53,27,29.44,29.22,17,6,17,0.00
2013-2-21,46,36,28,29,23,19,79,63,39,29.54,29.25,10,3,10,0.17
2013-2-22,48,35,29,29,21,15,70,58,37,29.67,29.53,12,3,12,0.01
2013-2-23,52,36,22,19,15,10,63,43,27,29.68,29.38,12,3,12,0.00
2013-2-24,41,34,27,23,17,6,84,53,27,29.53,29.32,15,5,15,0.00
2013-2-25,49,34,22,22,15,7,83,49,20,29.69,29.53,9,3,9,0.05
2013-2-26,47,34,24,19,9,-4,60,37,16,29.70,29.48,15,4,15,0.01
2013-2-27,48,32,19,15,8,4,60,38,18,29.88,29.69,7,2,7,0.00
2013-2-28,56,37,24,12,7,0,44,30,12,29.93,29.81,10,3,10,0.00
2013-3-1,60,44,28,21,15,7,45,32,20,29.97,29.86,9,3,9,0.00
2013-3-2,67,48,31,26,22,17,60,38,19,30.02,29.82,8,2,8,0.00
2013-3-3,66,52,36,25,18,2,49,30,8,29.82,29.56,12,3,12,0.00
2013-3-4,62,53,42,25,21,18,39,29,18,29.76,29.50,14,4,14,0.00
2013-3-5,65,47,30,25,18,14,57,35,16,29.92,29.76,8,2,8,0.00
2013-3-6,70,55,45,30,24,18,38,30,19,29.81,29.62,10,3,10,0.00
2013-3-7,75,56,37,27,20,14,45,26,13,29.72,29.57,10,3,10,0.00
2013-3-8,64,48,39,41,26,12,78,46,22,29.65,29.46,15,4,15,0.14
2013-3-9,45,39,33,34,25,18,78,58,36,29.63,29.46,12,4,12,0.02
2013-3-10,52,40,28,30,24,17,78,55,30,29.79,29.62,9,2,9,0.01
2013-3-11,65,47,33,25,19,12,53,34,15,29.81,29.66,11,3,11,0.00
2013-3-12,72,51,33,29,22,18,58,35,18,29.88,29.73,8,2,8,0.00
2013-3-13,72,53,36,31,23,16,60,34,17,29.98,29.84,7,2,7,0.00
2013-3-14,78,57,40,31,21,16,47,28,11,29.98,29.84,6,1,6,0.00
2013-3-15,83,60,42,28,19,13,37,23,8,29.86,29.63,7,2,7,0.00
2013-3-16,76,60,48,34,23,15,45,25,15,29.64,29.48,10,4,10,0.00
2013-3-17,70,55,42,37,22,-5,62,35,6,29.58,29.41,13,3,13,0.00
2013-3-18,68,52,36,19,10,4,36,20,9,29.67,29.54,12,3,12,0.00
2013-3-19,64,51,40,21,14,4,30,23,15,29.82,29.64,7,2,8,0.00
2013-3-20,68,50,31,26,20,12,51,31,18,29.87,29.56,9,2,9,0.00
2013-3-21,72,58,47,33,20,1,45,27,6,29.56,29.35,15,4,15,0.00
2013-3-22,68,52,35,27,15,9,38,25,12,29.51,29.34,15,4,15,0.00
2013-3-23,49,40,30,25,6,-11,51,27,10,29.71,29.42,17,6,17,0.00
2013-3-24,55,39,23,3,-2,-10,30,18,12,29.74,29.56,14,4,14,0.00
2013-3-25,59,41,23,14,8,-2,44,26,16,29.81,29.68,10,2,10,0.00
2013-3-26,71,50,29,19,12,6,42,24,12,29.81,29.62,14,4,14,0.00
2013-3-27,76,59,44,25,15,9,29,18,10,29.74,29.64,11,3,11,0.00
2013-3-28,76,60,45,24,17,11,31,20,10,29.79,29.69,12,2,12,0.00
2013-3-29,80,60,45,29,22,17,40,25,11,29.84,29.71,10,2,10,0.00
2013-3-30,76,59,41,29,22,17,43,26,12,29.82,29.66,9,2,9,0.01
2013-3-31,79,62,49,36,28,24,44,30,17,29.78,29.64,9,2,9,0.00
2013-4-1,80,62,46,32,21,10,42,23,8,29.73,29.54,8,2,9,0.00
2013-4-2,74,57,45,25,19,8,36,23,11,29.65,29.50,14,3,14,0.00
2013-4-3,69,53,38,33,26,21,62,38,17,29.78,29.65,12,2,12,0.00
2013-4-4,78,57,38,30,21,12,53,29,10,29.87,29.72,8,2,9,0.00
2013-4-5,81,65,53,23,17,9,22,16,8,29.75,29.51,17,4,17,0.00
2013-4-6,82,63,46,32,22,16,40,23,10,29.68,29.52,12,2,12,0.00
2013-4-7,78,63,46,31,21,15,40,22,11,29.60,29.46,12,3,12,0.00
2013-4-8,80,64,48,33,23,16,40,23,10,29.48,29.14,20,6,20,0.00
2013-4-9,55,46,41,35,30,25,73,54,37,29.51,29.16,16,5,16,0.00
2013-4-10,51,41,35,33,27,20,81,58,41,29.62,29.51,11,3,11,0.00
2013-4-11,66,47,30,33,25,18,66,44,25,29.63,29.49,13,4,13,0.00
2013-4-12,73,56,41,37,30,25,65,40,19,29.61,29.51,9,2,9,0.00
2013-4-13,78,60,41,35,25,14,57,30,10,29.59,29.38,14,3,14,0.00
2013-4-14,80,65,54,29,24,19,31,22,12,29.45,29.33,16,7,16,0.00
2013-4-15,84,64,46,31,22,11,39,22,7,29.48,29.31,16,4,16,0.00
2013-4-16,84,66,50,29,18,5,31,18,5,29.52,29.36,21,7,21,0.00
2013-4-17,63,52,40,30,19,9,40,29,15,29.62,29.38,12,5,12,0.00
2013-4-18,51,41,30,18,8,1,42,28,13,29.83,29.62,20,5,20,0.00
2013-4-19,68,46,26,16,7,2,39,22,10,29.91,29.64,9,2,9,0.00
2013-4-20,71,56,42,21,11,0,27,17,11,29.70,29.53,12,4,12,0.00
2013-4-21,77,58,40,26,18,5,45,25,7,29.80,29.64,8,2,8,0.00
2013-4-22,84,65,45,28,16,10,32,18,7,29.70,29.49,13,4,13,0.00
2013-4-23,73,58,42,30,17,-10,44,22,7,29.74,29.54,12,4,12,0.00
2013-4-24,77,52,30,25,18,7,53,29,12,29.81,29.68,8,2,8,0.00
2013-4-25,84,62,49,35,25,16,38,26,12,29.77,29.54,18,4,19,0.00
2013-4-26,78,61,45,32,21,3,51,26,6,29.85,29.69,12,2,12,0.00
2013-4-27,82,62,43,32,17,-3,47,23,5,29.88,29.72,8,2,8,0.00
2013-4-28,87,64,43,21,10,-7,30,14,3,29.76,29.58,9,2,9,0.00
2013-4-29,91,68,46,26,16,9,30,15,6,29.65,29.47,10,2,10,0.00
2013-4-30,92,71,54,26,17,6,24,14,5,29.58,29.45,15,3,15,0.00
2013-5-1,86,69,53,28,16,6,33,15,5,29.83,29.53,12,4,12,0.00
2013-5-2,70,53,39,28,20,12,54,31,13,30.06,29.83,12,4,12,0.00
2013-5-3,76,55,34,26,16,10,42,24,10,30.02,29.66,10,3,10,0.00
2013-5-4,86,63,42,21,13,8,33,16,6,29.69,29.57,22,5,22,0.02
2013-5-5,85,64,52,33,22,9,30,20,12,29.79,29.66,24,9,24,0.00
2013-5-6,74,64,56,41,28,18,44,26,19,29.71,29.63,14,5,14,0.00
2013-5-7,84,65,47,38,31,22,53,31,12,29.71,29.56,12,3,12,0.00
2013-5-8,75,60,48,33,28,17,52,32,12,29.71,29.61,12,2,12,0.00
2013-6-1,72,72,72,18,18,18,13,13,13,29.62,29.62,2,2,2,0.00
2013-6-2,72,72,72,18,18,18,13,13,13,29.62,29.62,2,2,2,0.00
2013-6-3,72,72,72,18,18,18,13,13,13,29.62,29.62,2,2,2,0.00
2013-6-4,72,72,72,18,18,18,13,13,13,29.62,29.62,2,2,2,0.00
2013-6-5,72,72,72,18,18,18,13,13,13,29.62,29.62,2,2,2,0.00
2013-6-6,72,72,72,18,18,18,13,13,13,29.62,29.62,2,2,2,0.00
2013-6-7,72,72,72,18,18,18,13,13,13,29.62,29.62,2,2,2,0.00
2013-6-8,72,72,72,18,18,18,13,13,13,29.62,29.62,2,2,2,0.00
2013-6-9,72,72,72,18,18,18,13,13,13,29.62,29.62,2,2,2,0.00
2013-6-10,93,72,72,23,18,17,13,13,8,29.80,29.62,2,2,2,0.15
2013-6-12,98,91,82,27,18,13,13,7,5,29.91,29.86,2,0,0,0.15
2013-6-13,98,84,67,43,34,14,29,18,5,29.97,29.81,0,0,0,0.00
2013-6-14,97,80,71,54,46,32,44,31,11,29.92,29.77,0,0,0,0.00
2013-6-15,96,79,63,51,41,27,50,30,10,29.97,29.82,0,0,0,0.00
2013-6-16,94,80,68,45,41,31,37,26,11,30.00,29.87,0,0,0,0.00
2013-6-17,93,80,64,47,40,33,39,26,12,30.00,29.80,0,0,0,0.00
2013-6-18,90,78,67,52,47,39,55,36,17,30.00,29.76,0,0,0,0.00
2013-6-19,97,82,63,44,20,-20,39,16,1,29.87,29.68,0,0,0,0.00
2013-6-20,96,81,63,42,7,-24,33,10,1,29.89,29.72,0,0,0,0.00
2013-6-21,95,80,62,42,12,-20,35,10,1,29.93,29.74,0,0,0,0.00
2013-6-22,94,80,60,24,10,-7,17,8,2,29.90,29.74,0,0,0,0.00
2013-6-23,92,79,59,23,11,-13,16,8,3,29.89,29.70,0,0,0,0.00
2013-6-24,94,81,66,23,7,-10,13,7,2,29.88,29.75,0,0,0,0.00
2013-6-25,98,82,63,27,18,9,17,10,5,29.94,29.81,0,0,0,0.00
2013-6-26,101,85,64,30,24,19,21,12,6,30.00,29.86,0,0,0,0.00
2013-6-27,108,89,73,35,26,9,21,12,3,30.02,29.89,0,0,0,0.00
2013-6-28,96,86,78,52,42,28,39,23,12,30.10,29.96,0,0,0,0.00
2013-6-29,98,82,69,49,44,35,45,28,12,30.05,29.87,17,1,17,0.00
2013-6-30,97,82,69,51,46,37,45,30,13,30.05,29.81,16,4,16,0.00
2013-7-1,91,75,63,54,50,44,65,44,21,30.10,29.92,15,5,15,0.00
2013-7-2,85,74,64,54,49,41,56,43,25,30.09,29.88,15,6,15,0.00
2013-7-3,85,72,62,57,53,44,76,55,26,30.03,29.78,13,4,13,0.36
2013-7-4,94,78,62,56,51,41,70,43,17,29.89,29.77,13,4,13,0.00
2013-7-5,93,78,69,60,53,49,70,44,23,29.91,29.73,15,4,15,0.38
2013-7-6,93,78,65,60,56,47,77,51,23,29.93,29.76,12,4,12,0.04
2013-7-7,96,81,68,58,55,46,67,44,21,29.94,29.81,12,4,12,0.00
2013-7-8,95,81,70,61,54,50,67,41,23,30.06,29.91,14,4,14,0.09
2013-7-9,97,80,67,62,58,51,76,50,23,30.07,29.91,18,3,18,0.01
2013-7-10,95,83,70,56,53,48,55,37,21,30.04,29.88,14,4,14,0.00
2013-7-11,88,79,70,60,55,48,65,46,26,30.05,29.85,13,5,13,0.00
2013-7-12,92,84,70,59,55,51,62,39,28,29.96,29.85,12,5,12,0.00
2013-7-13,96,82,72,60,55,50,56,41,24,30.00,29.87,9,4,10,0.19
2013-7-14,99,80,68,61,56,48,78,49,20,30.00,29.77,15,4,15,0.65
2013-7-15,73,69,66,60,56,50,80,64,52,30.01,29.92,14,6,15,0.00
2013-7-16,82,71,63,53,49,46,64,48,30,30.09,29.95,18,5,19,0.01
2013-7-17,80,70,62,56,52,47,76,54,33,30.13,30.02,15,6,15,0.00
2013-7-18,84,74,63,55,53,51,69,49,34,30.11,29.93,14,5,14,0.00
2013-7-19,88,75,66,60,57,53,75,54,33,30.02,29.87,15,4,15,0.00
2013-7-20,88,76,66,61,58,53,75,54,35,29.96,29.79,12,4,12,0.00
2013-7-21,90,77,69,59,55,47,65,48,24,29.92,29.79,12,4,12,0.00
2013-7-22,94,82,68,57,52,44,58,39,19,29.92,29.79,12,4,12,0.00
2013-7-23,99,83,72,55,52,47,52,35,19,29.93,29.80,16,3,16,12.54
2013-7-24,91,75,67,62,54,47,72,49,28,30.01,29.89,24,3,24,0.19
2013-7-25,84,74,66,61,58,56,74,60,44,30.03,29.90,16,5,16,0.04
2013-7-26,88,73,63,62,59,55,81,62,37,30.12,29.96,23,5,23,0.27
2013-7-27,82,72,63,60,57,54,80,61,39,30.10,29.87,12,5,12,0.00
2013-7-28,88,76,66,63,59,50,80,58,28,29.90,29.79,12,4,12,0.00
2013-7-29,91,78,66,60,53,45,71,46,21,29.99,29.88,14,3,14,0.28
2013-7-30,96,82,66,51,48,44,51,32,18,30.08,29.97,10,2,10,0.00
2013-7-31,96,84,69,51,47,41,43,29,17,30.08,29.94,10,3,10,0.12
2013-8-1,85,76,70,63,56,51,72,50,35,30.09,29.94,16,3,16,0.00
2013-8-2,93,77,66,62,59,52,77,57,27,30.00,29.85,12,2,12,0.00
2013-8-3,92,78,65,60,56,52,76,50,27,30.00,29.89,10,3,10,0.00
2013-8-4,94,80,68,61,57,48,74,47,23,30.02,29.88,12,4,12,0.00
2013-8-5,92,77,66,60,57,53,73,53,30,30.01,29.84,17,3,17,0.00
2013-8-6,89,76,68,59,54,51,60,47,28,29.94,29.85,14,4,14,0.00
2013-8-7,82,73,63,57,54,50,72,53,34,29.94,29.85,13,4,13,0.00
2013-8-8,88,76,65,56,51,42,69,45,22,29.94,29.84,14,4,14,0.00
2013-8-9,88,76,63,52,46,39,58,38,18,30.02,29.92,12,5,12,0.00
2013-8-10,83,72,63,54,51,45,73,49,31,30.11,29.98,15,5,15,0.00
2013-8-11,84,72,61,56,53,48,78,55,30,30.12,29.94,9,3,9,0.00
2013-8-12,84,72,66,61,56,52,74,57,38,30.05,29.93,13,4,13,0.00
2013-8-13,87,76,65,59,53,45,72,47,24,30.05,29.92,12,3,12,0.00
2013-8-14,89,76,65,59,52,43,70,45,21,30.04,29.90,13,3,13,0.00
2013-8-15,89,78,65,56,50,40,62,41,19,30.04,29.91,10,3,10,0.00
2013-8-16,95,80,63,53,46,36,60,34,13,30.05,29.91,9,3,9,0.03
2013-8-17,96,83,72,54,47,40,48,30,16,30.03,29.88,12,4,12,0.00
2013-8-18,96,83,70,52,49,44,49,32,18,30.02,29.89,10,3,14,0.00
2013-8-19,98,80,71,56,50,45,58,37,17,30.00,29.88,12,3,12,0.01
2013-8-20,92,78,63,59,55,49,72,49,25,30.01,29.85,15,3,15,0.00
2013-8-21,90,80,67,56,52,44,61,40,22,30.00,29.88,15,4,15,0.00
2013-8-22,92,81,68,52,48,42,51,33,22,30.02,29.87,10,4,10,0.00
2013-8-23,87,77,64,50,44,38,40,32,23,29.99,29.86,16,5,16,0.00
2013-8-24,84,73,67,60,55,48,69,54,34,30.02,29.93,10,3,10,0.15
2013-8-25,85,75,67,60,58,54,75,56,35,30.08,29.99,14,3,14,0.15
2013-8-26,88,77,65,58,55,50,70,49,30,30.07,29.94,12,3,12,0.00
2013-8-27,89,78,65,55,50,46,59,40,25,30.03,29.88,10,3,10,0.00
2013-8-28,88,76,64,55,50,46,55,41,27,30.03,29.92,12,5,12,0.00
2013-8-29,85,76,70,59,55,51,58,48,31,30.07,29.97,14,5,14,0.00
2013-8-30,93,81,66,61,54,45,65,41,25,30.05,29.89,10,4,10,0.00
2013-8-31,95,85,70,59,50,44,50,32,19,29.97,29.81,10,3,10,0.00
2013-9-1,94,85,74,58,51,42,54,32,17,30.02,29.84,22,5,22,0.00
2013-9-2,94,79,69,57,55,50,63,44,27,30.05,29.90,10,3,10,0.00
2013-9-3,76,75,75,53,53,53,46,46,45,30.00,29.99,4,2,4,0.00
2013-9-4,89,82,70,55,42,37,60,26,18,30.05,29.96,9,5,9,0.00
2013-9-7,81,78,73,51,50,49,42,38,33,29.95,29.91,2,1,2,0.01
2013-9-8,89,76,62,54,48,45,54,39,23,29.95,29.77,16,4,16,0.00
2013-9-9,87,75,64,55,50,44,61,43,26,29.86,29.73,17,5,17,0.00
2013-9-10,71,66,62,59,56,53,87,71,57,29.94,29.83,14,3,14,0.75
2013-9-11,83,71,63,63,58,53,86,67,37,29.97,29.88,14,3,14,0.04
2013-9-12,72,66,62,63,59,55,87,77,66,30.00,29.88,12,4,12,0.30
2013-9-13,73,65,61,60,58,56,90,79,61,29.94,29.84,10,3,10,0.85
2013-9-14,73,65,59,59,57,52,89,76,59,29.90,29.81,10,3,10,0.00
2013-9-15,80,67,57,60,55,51,87,68,40,29.99,29.87,7,2,7,0.00
2013-9-16,78,68,57,58,54,51,81,62,43,30.06,29.94,9,2,9,0.00
2013-9-17,79,70,59,59,55,52,79,61,42,29.99,29.82,9,4,9,0.00
2013-9-18,81,72,63,60,57,51,81,61,38,29.89,29.76,12,4,12,0.00
2013-9-19,88,73,63,59,53,42,77,53,26,29.89,29.79,6,2,6,0.00
2013-9-20,85,71,59,55,50,40,69,48,32,29.96,29.85,9,3,9,0.00
2013-9-21,80,69,59,56,52,48,73,55,36,29.96,29.79,10,4,12,0.00
2013-9-22,79,67,58,54,51,42,72,58,32,29.82,29.52,21,6,21,0.00
2013-9-23,76,63,50,42,36,32,61,39,22,29.94,29.70,12,3,12,0.00
2013-9-24,79,65,50,42,39,35,58,40,22,30.01,29.84,1,1,1,0.00
2013-9-25,84,67,50,44,40,32,64,40,17,29.84,29.59,13,4,13,0.00
2013-9-26,80,67,56,43,37,32,48,35,19,29.71,29.61,14,5,14,0.00
2013-9-27,68,61,48,49,40,30,56,46,34,29.89,29.67,10,3,11,0.00
2013-9-28,76,58,41,31,26,23,53,33,15,30.02,29.89,7,2,11,0.00
2013-9-29,81,62,42,32,26,22,47,28,14,30.03,29.87,7,2,7,0.00
2013-9-30,87,66,49,36,29,25,44,26,12,29.90,29.75,8,2,9,0.00
2013-10-1,89,68,50,34,27,16,40,24,8,29.88,29.78,6,3,6,0.00
2013-10-2,84,66,48,33,28,23,39,26,11,29.90,29.75,4,4,4,0.00
2013-10-3,80,65,48,39,30,20,46,29,11,29.81,29.61,4,4,4,0.00
2013-10-4,67,58,48,32,21,11,43,25,13,29.93,29.68,4,4,4,0.00
2013-10-5,66,53,39,24,19,15,47,28,15,30.05,29.93,4,4,4,0.00
2013-10-6,76,56,43,27,22,18,39,28,13,30.10,29.98,4,3,4,0.00
2013-10-7,74,58,42,28,23,19,41,27,13,30.06,29.89,4,4,4,0.00
2013-10-8,78,61,44,33,29,24,47,31,18,29.89,29.69,4,4,4,0.00
2013-10-9,76,62,48,37,31,27,44,32,18,29.78,29.67,4,4,4,0.00
2013-10-10,69,57,45,45,35,27,66,45,30,29.79,29.58,4,4,4,0.00
2013-10-11,68,52,35,35,30,24,64,46,28,29.86,29.77,4,4,4,0.00
2013-10-12,70,56,40,37,33,28,66,45,26,29.94,29.83,4,4,4,0.00
2013-10-13,77,63,50,44,39,33,55,42,23,29.93,29.73,4,4,4,0.00
2013-10-14,71,61,49,44,30,19,51,33,17,29.87,29.77,4,4,4,0.00
2013-10-15,66,53,40,34,27,20,47,36,27,29.88,29.73,4,4,4,0.00
2013-10-16,67,54,44,37,29,16,63,40,18,29.91,29.81,4,4,4,0.00
2013-10-17,70,53,36,26,20,14,43,28,17,29.92,29.74,4,4,4,0.00
2013-10-18,66,52,37,23,17,12,41,26,13,29.90,29.75,4,4,4,0.00
2013-10-19,70,51,32,28,21,16,55,33,16,29.94,29.79,4,4,4,0.00
2013-10-20,75,56,39,25,18,13,39,25,11,29.81,29.64,4,4,4,0.00
2013-10-21,71,56,42,34,27,16,57,34,22,29.91,29.73,4,4,4,0.00
2013-10-22,71,54,36,31,24,20,54,33,17,29.98,29.68,4,4,4,0.00
2013-10-23,51,43,39,25,19,17,43,38,31,29.91,29.53,4,4,4,0.00
2013-10-24,74,66,51,46,34,24,72,32,21,29.99,29.56,4,4,4,0.00
2013-10-25,73,59,51,47,45,41,79,62,37,30.01,28.89,4,3,4,0.00
2013-10-26,72,72,72,45,45,45,37,37,37,28.89,28.89,1,1,1,0.00
2013-10-27,72,72,72,45,45,45,37,37,37,28.89,28.89,1,1,1,0.00
2013-10-28,72,72,72,45,45,45,37,37,37,28.89,28.89,1,1,1,0.00
2013-10-29,72,72,72,45,45,45,37,37,37,28.89,28.89,1,1,1,0.00
2013-10-30,72,72,72,45,45,45,37,37,37,28.89,28.89,1,1,1,0.00
2013-10-31,72,72,72,45,45,45,37,37,37,28.89,28.89,1,1,1,0.00
2013-11-1,72,72,72,45,45,45,37,37,37,28.89,28.89,1,1,1,0.00
2013-11-2,72,72,72,45,45,45,37,37,37,28.89,28.89,1,1,1,0.00
2013-11-3,72,72,72,45,45,45,37,37,37,28.89,28.89,1,1,1,0.00
2013-11-4,72,72,72,45,45,45,37,37,37,28.89,28.89,1,1,1,0.00
2013-11-5,72,72,72,45,45,45,37,37,37,28.89,28.89,1,1,1,0.00
2013-11-6,72,72,72,45,45,45,37,37,37,28.89,28.89,1,1,1,0.00
2013-11-7,72,72,72,45,45,45,37,37,37,28.89,28.89,1,1,1,0.00
2013-11-8,72,72,72,45,45,45,37,37,37,28.89,28.89,1,1,1,0.00
2013-11-9,72,72,72,45,45,45,37,37,37,28.89,28.89,1,1,1,0.00
2013-11-10,72,72,72,45,45,45,37,37,37,28.89,28.89,1,1,1,0.00
2013-11-11,72,72,72,45,45,45,37,37,37,28.89,28.89,1,1,1,0.00
2013-11-12,72,72,72,45,45,45,37,37,37,28.89,28.89,1,1,1,0.00
2013-11-13,72,72,72,45,45,45,37,37,37,28.89,28.89,1,1,1,0.00
2013-11-14,72,72,72,45,45,45,37,37,37,28.89,28.89,1,1,1,0.00
2013-11-15,72,72,72,45,45,45,37,37,37,28.89,28.89,1,1,1,0.00
2013-11-16,72,72,72,45,45,45,37,37,37,28.89,28.89,1,1,1,0.00
2013-11-17,72,72,72,45,45,45,37,37,37,28.89,28.89,1,1,1,0.00
2013-11-18,72,72,72,45,45,45,37,37,37,28.89,28.89,1,1,1,0.00
2013-11-19,72,72,72,45,45,45,37,37,37,28.89,28.89,1,1,1,0.00
2013-11-20,72,72,72,45,45,45,37,37,37,28.89,28.89,1,1,1,0.00
2013-11-21,72,72,72,45,45,45,37,37,37,28.89,28.89,1,1,1,0.00
2013-11-22,72,72,72,45,45,45,37,37,37,28.89,28.89,1,1,1,0.00
2013-11-23,72,72,72,45,45,45,37,37,37,28.89,28.89,1,1,1,0.00
2013-11-24,72,72,72,45,45,45,37,37,37,28.89,28.89,1,1,1,0.00
2013-11-25,72,72,72,45,45,45,37,37,37,28.89,28.89,1,1,1,0.00
2013-11-26,72,72,72,45,45,45,37,37,37,28.89,28.89,1,1,1,0.00
2013-11-27,72,72,72,45,45,45,37,37,37,28.89,28.89,1,1,1,0.00
2013-11-28,72,72,72,45,45,45,37,37,37,28.89,28.89,1,1,1,0.00
2013-11-29,72,72,72,45,45,45,37,37,37,28.89,28.89,1,1,1,0.00
2013-11-30,72,72,72,45,45,45,37,37,37,28.89,28.89,1,1,1,0.00
2013-12-1,72,72,72,45,45,45,37,37,37,28.89,28.89,1,1,1,0.00
2013-12-2,72,72,72,45,45,45,37,37,37,28.89,28.89,1,1,1,0.00
2013-12-3,72,72,72,45,45,45,37,37,37,28.89,28.89,1,1,1,0.00
2013-12-4,72,72,72,45,45,45,37,37,37,28.89,28.89,1,1,1,0.00
2013-12-5,72,72,72,45,45,45,37,37,37,28.89,28.89,1,1,1,0.00
2013-12-6,72,72,72,45,45,45,37,37,37,28.89,28.89,1,1,1,0.00
2013-12-7,72,72,72,45,45,45,37,37,37,28.89,28.89,1,1,1,0.00
2013-12-8,72,72,72,45,45,45,37,37,37,28.89,28.89,1,1,1,0.00
2013-12-9,72,72,72,45,45,45,37,37,37,28.89,28.89,1,1,1,0.00
2013-12-10,72,72,72,45,45,45,37,37,37,28.89,28.89,1,1,1,0.00
2013-12-11,72,72,72,45,45,45,37,37,37,28.89,28.89,1,1,1,0.00
2013-12-12,72,72,72,45,45,45,37,37,37,28.89,28.89,1,1,1,0.00
2013-12-13,72,72,72,45,45,45,37,37,37,28.89,28.89,1,1,1,0.00
2013-12-14,72,72,72,45,45,45,37,37,37,28.89,28.89,1,1,1,0.00
2013-12-15,72,72,72,45,45,45,37,37,37,28.89,28.89,1,1,1,0.00
2013-12-16,72,72,72,45,45,45,37,37,37,28.89,28.89,1,1,1,0.00
2013-12-17,72,72,72,45,45,45,37,37,37,28.89,28.89,1,1,1,0.00
2013-12-18,72,72,72,45,45,45,37,37,37,28.89,28.89,1,1,1,0.00
2013-12-19,72,72,72,45,45,45,37,37,37,28.89,28.89,1,1,1,0.00
2013-12-20,72,72,72,45,45,45,37,37,37,28.89,28.89,1,1,1,0.00
2013-12-21,72,72,72,45,45,45,37,37,37,28.89,28.89,1,1,1,0.00
2013-12-22,72,72,72,45,45,45,37,37,37,28.89,28.89,1,1,1,0.00
2013-12-23,72,72,72,45,45,45,37,37,37,28.89,28.89,1,1,1,0.00
2013-12-24,72,72,72,45,45,45,37,37,37,28.89,28.89,1,1,1,0.00
2013-12-25,72,72,72,45,45,45,37,37,37,28.89,28.89,1,1,1,0.00
2013-12-26,72,72,72,45,45,45,37,37,37,28.89,28.89,1,1,1,0.00
2013-12-27,72,72,72,45,45,45,37,37,37,28.89,28.89,1,1,1,0.00
2013-12-28,72,72,72,45,45,45,37,37,37,28.89,28.89,1,1,1,0.00
2013-12-29,72,72,72,45,45,45,37,37,37,28.89,28.89,1,1,1,0.00
2013-12-30,72,72,72,45,45,45,37,37,37,28.89,28.89,1,1,1,0.00
2013-12-31,72,72,72,45,45,45,37,37,37,28.89,28.89,1,1,1,0.00
2014-1-1,72,72,72,45,45,45,37,37,37,28.89,28.89,1,1,1,0.00
2014-1-2,72,72,72,45,45,45,37,37,37,28.89,28.89,1,1,1,0.00